createdAt,value
2023-03-31T00:01:34.076Z,10.47
2023-03-31T00:04:04.541Z,10.47
2023-03-31T00:06:38.461Z,10.46
2023-03-31T00:09:09.581Z,10.45
2023-03-31T00:11:42.290Z,10.44
2023-03-31T00:14:10.000Z,10.43
2023-03-31T00:16:39.215Z,10.43
2023-03-31T00:19:10.132Z,10.42
2023-03-31T00:21:37.811Z,10.40
2023-03-31T00:24:11.575Z,10.40
2023-03-31T00:26:39.369Z,10.40
2023-03-31T00:29:08.563Z,10.39
2023-03-31T00:31:36.407Z,10.39
2023-03-31T00:34:04.866Z,10.39
2023-03-31T00:36:36.731Z,10.38
2023-03-31T00:39:08.838Z,10.36
2023-03-31T00:41:39.309Z,10.35
2023-03-31T00:44:24.496Z,10.34
2023-03-31T00:47:13.099Z,10.33
2023-03-31T00:49:45.356Z,10.32
2023-03-31T00:52:26.802Z,10.33
2023-03-31T00:55:03.777Z,10.33
2023-03-31T00:57:39.529Z,10.34
2023-03-31T01:00:16.700Z,10.35
2023-03-31T01:02:56.043Z,10.36
2023-03-31T01:05:37.880Z,10.38
2023-03-31T01:08:07.089Z,10.38
2023-03-31T01:10:41.911Z,10.38
2023-03-31T01:13:10.937Z,10.39
2023-03-31T01:15:39.191Z,10.40
2023-03-31T01:18:07.459Z,10.41
2023-03-31T01:20:35.532Z,10.43
2023-03-31T01:23:12.005Z,10.45
2023-03-31T01:26:01.523Z,10.47
2023-03-31T01:28:54.879Z,10.47
2023-03-31T01:31:47.092Z,10.48
2023-03-31T01:34:39.884Z,10.45
2023-03-31T01:37:42.307Z,10.45
2023-03-31T01:40:37.768Z,10.44
2023-03-31T01:43:21.528Z,10.43
2023-03-31T01:46:02.258Z,10.42
2023-03-31T01:48:50.200Z,10.42
2023-03-31T01:51:23.282Z,10.42
2023-03-31T01:53:58.826Z,10.42
2023-03-31T01:56:35.408Z,10.40
2023-03-31T01:59:11.569Z,10.41
2023-03-31T02:01:45.314Z,10.40
2023-03-31T02:04:45.076Z,10.40
2023-03-31T02:07:20.251Z,10.39
2023-03-31T02:09:53.826Z,10.40
2023-03-31T02:12:24.913Z,10.39
2023-03-31T02:14:55.412Z,10.37
2023-03-31T02:17:30.647Z,10.37
2023-03-31T02:20:05.840Z,10.38
2023-03-31T02:22:37.610Z,10.40
2023-03-31T02:25:08.256Z,10.38
2023-03-31T02:27:40.280Z,10.39
2023-03-31T02:30:09.801Z,10.38
2023-03-31T02:32:40.636Z,10.39
2023-03-31T02:35:13.440Z,10.39
2023-03-31T02:37:42.721Z,10.39
2023-03-31T02:40:16.863Z,10.38
2023-03-31T02:42:45.037Z,10.35
2023-03-31T02:45:39.513Z,10.31
2023-03-31T02:48:11.733Z,10.25
2023-03-31T02:50:50.827Z,10.18
2023-03-31T02:53:54.446Z,10.13
2023-03-31T02:56:38.528Z,10.07
2023-03-31T02:59:12.028Z,10.01
2023-03-31T03:01:54.688Z,9.98
2023-03-31T03:04:49.788Z,9.95
2023-03-31T03:07:26.741Z,9.93
2023-03-31T03:10:00.256Z,9.90
2023-03-31T03:12:50.964Z,9.88
2023-03-31T03:15:26.588Z,9.87
2023-03-31T03:17:56.415Z,9.86
2023-03-31T03:20:24.603Z,9.85
2023-03-31T03:22:52.364Z,9.85
2023-03-31T03:25:24.377Z,9.85
2023-03-31T03:27:54.612Z,9.84
2023-03-31T03:30:22.688Z,9.83
2023-03-31T03:32:50.582Z,9.83
2023-03-31T03:35:18.283Z,9.82
2023-03-31T03:37:46.018Z,9.81
2023-03-31T03:40:13.776Z,9.80
2023-03-31T03:42:41.468Z,9.80
2023-03-31T03:45:09.429Z,9.80
2023-03-31T03:47:37.214Z,9.80
2023-03-31T03:50:05.853Z,9.79
2023-03-31T03:52:33.520Z,9.78
2023-03-31T03:55:02.001Z,9.77
2023-03-31T03:57:29.880Z,9.77
2023-03-31T03:59:57.781Z,9.76
2023-03-31T04:02:27.947Z,9.75
2023-03-31T04:04:55.964Z,9.72
2023-03-31T04:07:23.939Z,9.70
2023-03-31T04:09:51.609Z,9.69
2023-03-31T04:12:19.267Z,9.66
2023-03-31T04:14:46.920Z,9.64
2023-03-31T04:17:15.935Z,9.63
2023-03-31T04:19:43.853Z,9.61
2023-03-31T04:22:11.899Z,9.61
2023-03-31T04:24:39.591Z,9.60
2023-03-31T04:27:07.581Z,9.58
2023-03-31T04:29:37.326Z,9.58
2023-03-31T04:32:05.367Z,9.59
2023-03-31T04:34:36.135Z,9.59
2023-03-31T04:37:04.495Z,9.59
2023-03-31T04:39:32.293Z,9.60
2023-03-31T04:42:01.172Z,9.60
2023-03-31T04:44:29.844Z,9.62
2023-03-31T04:46:59.014Z,9.64
2023-03-31T04:49:26.712Z,9.64
2023-03-31T04:51:54.382Z,9.64
2023-03-31T04:54:22.120Z,9.65
2023-03-31T04:56:49.794Z,9.66
2023-03-31T04:59:17.468Z,9.66
2023-03-31T05:01:45.333Z,9.66
2023-03-31T05:04:13.153Z,9.67
2023-03-31T05:06:41.154Z,9.68
2023-03-31T05:09:10.298Z,9.69
2023-03-31T05:11:38.476Z,9.69
2023-03-31T05:14:06.668Z,9.70
2023-03-31T05:16:34.697Z,9.71
2023-03-31T05:19:02.598Z,9.72
2023-03-31T05:21:31.270Z,9.74
2023-03-31T05:23:59.263Z,9.76
2023-03-31T05:26:27.210Z,9.78
2023-03-31T05:28:54.988Z,9.81
2023-03-31T05:31:23.286Z,9.85
2023-03-31T05:33:51.912Z,9.86
2023-03-31T05:36:19.815Z,9.87
2023-03-31T05:38:47.800Z,9.90
2023-03-31T05:41:17.053Z,9.93
2023-03-31T05:43:44.863Z,9.95
2023-03-31T05:46:12.713Z,9.98
2023-03-31T05:48:41.425Z,10.02
2023-03-31T05:51:09.113Z,10.06
2023-03-31T05:53:36.823Z,10.10
2023-03-31T05:56:06.940Z,10.13
2023-03-31T05:58:36.310Z,10.16
2023-03-31T06:01:10.318Z,10.20
2023-03-31T06:03:41.511Z,10.23
2023-03-31T06:06:10.458Z,10.27
2023-03-31T06:08:38.109Z,10.29
2023-03-31T06:11:07.565Z,10.33
2023-03-31T06:13:36.959Z,10.36
2023-03-31T06:16:05.915Z,10.40
2023-03-31T06:18:36.377Z,10.44
2023-03-31T06:21:05.151Z,10.48
2023-03-31T06:23:33.817Z,10.54
2023-03-31T06:26:04.254Z,10.61
2023-03-31T06:28:32.071Z,10.67
2023-03-31T06:31:05.225Z,10.74
2023-03-31T06:33:34.115Z,10.81
2023-03-31T06:36:04.313Z,10.87
2023-03-31T06:38:37.008Z,10.91
2023-03-31T06:41:06.799Z,10.95
2023-03-31T06:43:35.287Z,10.99
2023-03-31T06:46:04.164Z,10.99
2023-03-31T06:48:32.412Z,11.03
2023-03-31T06:51:02.460Z,11.08
2023-03-31T06:53:30.687Z,11.14
2023-03-31T06:55:58.525Z,11.23
2023-03-31T06:58:27.722Z,11.31
2023-03-31T07:00:56.928Z,11.39
2023-03-31T07:03:25.503Z,11.46
2023-03-31T07:05:55.096Z,11.49
2023-03-31T07:08:23.812Z,11.52
2023-03-31T07:11:00.040Z,11.54
2023-03-31T07:13:28.376Z,11.56
2023-03-31T07:15:56.540Z,11.59
2023-03-31T07:18:35.062Z,11.61
2023-03-31T07:21:07.292Z,11.66
2023-03-31T07:23:37.885Z,11.70
2023-03-31T07:26:06.563Z,11.74
2023-03-31T07:28:35.364Z,11.77
2023-03-31T07:31:03.447Z,11.82
2023-03-31T07:33:31.953Z,11.86
2023-03-31T07:36:11.638Z,11.89
2023-03-31T07:38:43.021Z,11.90
2023-03-31T07:41:12.948Z,11.91
2023-03-31T07:43:40.913Z,11.90
2023-03-31T07:46:16.308Z,11.89
2023-03-31T07:48:44.407Z,11.90
2023-03-31T07:51:16.938Z,11.90
2023-03-31T07:53:46.299Z,11.89
2023-03-31T07:56:14.005Z,11.89
2023-03-31T07:58:42.037Z,11.89
2023-03-31T08:01:09.919Z,11.94
2023-03-31T08:03:37.632Z,12.00
2023-03-31T08:06:05.670Z,12.06
2023-03-31T08:08:33.683Z,12.12
2023-03-31T08:11:01.625Z,12.19
2023-03-31T08:13:29.502Z,12.28
2023-03-31T08:15:57.269Z,12.37
2023-03-31T08:18:25.167Z,12.47
2023-03-31T08:20:53.116Z,12.55
2023-03-31T08:23:21.086Z,12.63
2023-03-31T08:25:48.887Z,12.68
2023-03-31T08:28:17.658Z,12.75
2023-03-31T08:30:46.356Z,12.81
2023-03-31T08:33:14.276Z,12.89
2023-03-31T08:35:42.061Z,12.97
2023-03-31T08:38:09.816Z,13.01
2023-03-31T08:40:41.779Z,13.06
2023-03-31T08:43:19.053Z,13.16
2023-03-31T08:45:48.749Z,13.25
2023-03-31T08:48:52.173Z,13.32
2023-03-31T08:51:28.427Z,13.39
2023-03-31T08:53:59.472Z,13.43
2023-03-31T08:56:27.946Z,13.46
2023-03-31T08:58:55.954Z,13.49
2023-03-31T09:01:54.476Z,13.53
2023-03-31T09:04:32.333Z,13.58
2023-03-31T09:07:34.965Z,13.62
2023-03-31T09:10:29.020Z,13.65
2023-03-31T09:13:17.822Z,13.65
2023-03-31T09:15:57.523Z,13.65
2023-03-31T09:18:32.228Z,13.69
2023-03-31T09:21:10.735Z,13.77
2023-03-31T09:23:44.676Z,13.82
2023-03-31T09:26:53.533Z,13.84
2023-03-31T09:29:29.557Z,13.90
2023-03-31T09:32:15.075Z,14.01
2023-03-31T09:34:44.454Z,14.07
2023-03-31T09:37:13.170Z,14.10
2023-03-31T09:39:41.432Z,14.16
2023-03-31T09:42:13.584Z,14.21
2023-03-31T09:44:44.742Z,14.24
2023-03-31T09:47:21.165Z,14.30
2023-03-31T09:49:53.658Z,14.38
2023-03-31T09:52:31.813Z,14.42
2023-03-31T09:55:01.554Z,14.41
2023-03-31T09:57:34.100Z,14.37
2023-03-31T10:00:23.103Z,14.34
2023-03-31T10:02:57.693Z,14.32
2023-03-31T10:05:36.594Z,14.31
2023-03-31T10:08:13.128Z,14.29
2023-03-31T10:10:55.566Z,14.29
2023-03-31T10:13:29.563Z,14.34
2023-03-31T10:16:08.471Z,14.39
2023-03-31T10:18:39.669Z,14.42
2023-03-31T10:21:20.324Z,14.48
2023-03-31T10:23:49.629Z,14.57
2023-03-31T10:26:22.925Z,14.65
2023-03-31T10:28:52.867Z,14.74
2023-03-31T10:31:34.723Z,14.92
2023-03-31T10:34:08.315Z,15.08
2023-03-31T10:36:36.743Z,15.22
2023-03-31T10:39:09.256Z,15.36
2023-03-31T10:41:38.818Z,15.43
2023-03-31T10:44:06.720Z,15.49
2023-03-31T10:46:44.296Z,15.50
2023-03-31T10:49:21.061Z,15.56
2023-03-31T10:52:00.025Z,15.68
2023-03-31T10:54:27.937Z,15.78
2023-03-31T10:57:01.552Z,15.87
2023-03-31T10:59:36.426Z,15.91
2023-03-31T11:02:28.751Z,15.89
2023-03-31T11:05:25.536Z,15.88
2023-03-31T11:08:20.390Z,15.83
2023-03-31T11:11:09.640Z,15.81
2023-03-31T11:13:48.798Z,15.84
2023-03-31T11:16:33.914Z,15.90
2023-03-31T11:19:22.337Z,15.96
2023-03-31T11:22:07.411Z,15.94
2023-03-31T11:25:06.207Z,15.97
2023-03-31T11:28:00.147Z,15.98
2023-03-31T11:30:38.314Z,16.03
2023-03-31T11:33:35.761Z,16.09
2023-03-31T11:36:19.084Z,16.11
2023-03-31T11:38:47.634Z,16.18
2023-03-31T11:41:19.961Z,16.32
2023-03-31T11:43:48.268Z,16.46
2023-03-31T11:46:23.997Z,16.49
2023-03-31T11:48:59.589Z,16.45
2023-03-31T11:51:33.492Z,16.42
2023-03-31T11:54:12.098Z,16.44
2023-03-31T11:56:41.519Z,16.51
2023-03-31T11:59:14.912Z,16.62
2023-03-31T12:01:50.509Z,16.71
2023-03-31T12:04:30.772Z,16.87
2023-03-31T12:07:04.796Z,16.93
2023-03-31T12:09:50.144Z,16.89
2023-03-31T12:12:28.929Z,16.89
2023-03-31T12:15:18.813Z,16.87
2023-03-31T12:17:49.906Z,16.87
2023-03-31T12:20:31.812Z,16.84
2023-03-31T12:23:03.713Z,16.85
2023-03-31T12:25:45.857Z,16.86
2023-03-31T12:28:15.365Z,16.84
2023-03-31T12:30:45.186Z,16.82
2023-03-31T12:33:28.821Z,16.79
2023-03-31T12:36:18.732Z,16.77
2023-03-31T12:38:58.450Z,16.72
2023-03-31T12:41:47.848Z,16.69
2023-03-31T12:44:27.571Z,16.63
2023-03-31T12:47:13.372Z,16.54
2023-03-31T12:50:09.264Z,16.42
2023-03-31T12:52:36.946Z,16.32
2023-03-31T12:55:29.073Z,16.32
2023-03-31T12:58:24.876Z,16.39
2023-03-31T13:01:14.814Z,16.51
2023-03-31T13:04:03.628Z,16.55
2023-03-31T13:06:31.737Z,16.59
2023-03-31T13:09:08.929Z,16.60
2023-03-31T13:11:44.797Z,16.61
2023-03-31T13:14:27.493Z,16.64
2023-03-31T13:17:14.700Z,16.67
2023-03-31T13:19:42.747Z,16.67
2023-03-31T13:22:29.145Z,16.67
2023-03-31T13:25:31.546Z,16.66
2023-03-31T13:28:17.474Z,16.65
2023-03-31T13:30:47.114Z,16.69
2023-03-31T13:33:25.627Z,16.73
2023-03-31T13:36:16.175Z,16.76
2023-03-31T13:39:11.044Z,16.76
2023-03-31T13:42:14.793Z,16.76
2023-03-31T13:44:42.486Z,16.76
2023-03-31T13:47:34.565Z,16.80
2023-03-31T13:50:54.343Z,16.83
2023-03-31T13:53:48.843Z,16.79
2023-03-31T13:56:32.750Z,16.71
2023-03-31T13:59:22.034Z,16.60
2023-03-31T14:02:22.119Z,16.45
2023-03-31T14:05:07.992Z,16.29
2023-03-31T14:07:51.043Z,16.16
2023-03-31T14:10:24.625Z,16.04
2023-03-31T14:12:53.006Z,15.93
2023-03-31T14:15:22.466Z,15.88
2023-03-31T14:17:50.463Z,15.83
2023-03-31T14:20:33.623Z,15.80
2023-03-31T14:23:48.261Z,15.78
2023-03-31T14:26:34.566Z,15.73
2023-03-31T14:29:11.143Z,15.71
2023-03-31T14:32:04.805Z,15.69
2023-03-31T14:35:10.532Z,15.69
2023-03-31T14:37:38.620Z,15.70
2023-03-31T14:40:11.224Z,15.69
2023-03-31T14:42:41.008Z,15.66
2023-03-31T14:45:26.635Z,15.62
2023-03-31T14:48:03.075Z,15.59
2023-03-31T14:50:35.669Z,15.53
2023-03-31T14:53:05.083Z,15.44
2023-03-31T14:55:49.292Z,15.31
2023-03-31T14:58:32.214Z,15.09
2023-03-31T15:01:00.213Z,14.81
2023-03-31T15:03:29.205Z,14.51
2023-03-31T15:05:59.571Z,14.23
2023-03-31T15:08:29.806Z,14.05
2023-03-31T15:13:56.703Z,13.61
2023-03-31T15:16:38.127Z,13.35
2023-03-31T15:19:14.122Z,13.14
2023-03-31T15:21:42.627Z,12.95
2023-03-31T15:24:13.433Z,12.82
2023-03-31T15:26:55.333Z,12.73
2023-03-31T15:29:35.281Z,12.65
2023-03-31T15:32:07.458Z,12.56
2023-03-31T15:34:37.052Z,12.50
2023-03-31T15:37:07.946Z,12.45
2023-03-31T15:39:38.146Z,12.42
2023-03-31T15:42:08.777Z,12.41
2023-03-31T15:44:48.360Z,12.40
2023-03-31T15:47:29.359Z,12.40
2023-03-31T15:50:15.778Z,12.40
2023-03-31T15:52:48.665Z,12.37
2023-03-31T15:55:33.272Z,12.36
2023-03-31T15:58:03.172Z,12.35
2023-03-31T16:00:54.622Z,12.32
2023-03-31T16:03:51.991Z,12.29
2023-03-31T16:06:26.699Z,12.24
2023-03-31T16:09:06.239Z,12.21
2023-03-31T16:11:45.531Z,12.16
2023-03-31T16:14:20.183Z,12.11
2023-03-31T16:16:56.617Z,12.07
2023-03-31T16:19:27.329Z,12.02
2023-03-31T16:21:59.710Z,11.97
2023-03-31T16:24:36.084Z,11.95
2023-03-31T16:27:07.892Z,11.93
2023-03-31T16:29:37.851Z,11.90
2023-03-31T16:32:14.760Z,11.88
2023-03-31T16:35:03.635Z,11.86
2023-03-31T16:37:32.005Z,11.84
2023-03-31T16:39:59.763Z,11.81
2023-03-31T16:42:28.056Z,11.78
2023-03-31T16:45:13.138Z,11.76
2023-03-31T16:47:45.280Z,11.72
2023-03-31T16:50:15.425Z,11.70
2023-03-31T16:52:44.801Z,11.67
2023-03-31T16:55:14.526Z,11.64
2023-03-31T16:57:42.267Z,11.61
2023-03-31T17:00:10.742Z,11.59
2023-03-31T17:02:38.972Z,11.58
2023-03-31T17:05:13.139Z,11.54
2023-03-31T17:07:41.797Z,11.50
2023-03-31T17:10:10.150Z,11.43
2023-03-31T17:12:42.445Z,11.39
2023-03-31T17:15:17.147Z,11.33
2023-03-31T17:17:44.854Z,11.27
2023-03-31T17:20:12.956Z,11.21
2023-03-31T17:22:40.724Z,11.16
2023-03-31T17:25:09.256Z,11.09
2023-03-31T17:27:37.763Z,11.01
2023-03-31T17:30:07.214Z,10.95
2023-03-31T17:32:35.928Z,10.91
2023-03-31T17:35:04.347Z,10.87
2023-03-31T17:37:33.141Z,10.87
2023-03-31T17:40:01.075Z,10.84
2023-03-31T17:42:30.912Z,10.83
2023-03-31T17:44:58.828Z,10.82
2023-03-31T17:47:27.316Z,10.80
2023-03-31T17:49:55.059Z,10.79
2023-03-31T17:52:22.784Z,10.77
2023-03-31T17:54:51.877Z,10.76
2023-03-31T17:57:19.585Z,10.75
2023-03-31T17:59:48.760Z,10.74
2023-03-31T18:02:16.476Z,10.73
2023-03-31T18:04:44.845Z,10.72
2023-03-31T18:07:13.068Z,10.72
2023-03-31T18:09:40.772Z,10.72
2023-03-31T18:12:08.531Z,10.70
2023-03-31T18:14:36.238Z,10.69
2023-03-31T18:17:04.063Z,10.68
2023-03-31T18:19:31.990Z,10.67
2023-03-31T18:21:59.677Z,10.66
2023-03-31T18:24:27.428Z,10.65
2023-03-31T18:26:55.202Z,10.64
2023-03-31T18:29:23.221Z,10.63
2023-03-31T18:31:53.359Z,10.62
2023-03-31T18:34:21.577Z,10.61
2023-03-31T18:36:49.847Z,10.61
2023-03-31T18:39:17.612Z,10.61
2023-03-31T18:41:47.878Z,10.62
2023-03-31T18:44:19.766Z,10.61
2023-03-31T18:46:47.759Z,10.58
2023-03-31T18:49:15.763Z,10.57
2023-03-31T18:51:43.737Z,10.57
2023-03-31T18:54:12.111Z,10.55
2023-03-31T18:56:39.803Z,10.54
2023-03-31T18:59:07.715Z,10.54
2023-03-31T19:01:40.098Z,10.53
2023-03-31T19:04:11.789Z,10.54
2023-03-31T19:06:43.175Z,10.54
2023-03-31T19:09:11.717Z,10.52
2023-03-31T19:11:39.502Z,10.53
2023-03-31T19:14:07.446Z,10.53
2023-03-31T19:16:42.532Z,10.54
2023-03-31T19:19:11.569Z,10.55
2023-03-31T19:21:58.151Z,10.55
2023-03-31T19:24:26.341Z,10.55
2023-03-31T19:26:54.177Z,10.54
2023-03-31T19:29:22.408Z,10.53
2023-03-31T19:31:50.506Z,10.53
2023-03-31T19:34:18.275Z,10.52
2023-03-31T19:36:46.356Z,10.51
2023-03-31T19:39:14.526Z,10.50
2023-03-31T19:41:42.351Z,10.49
2023-03-31T19:44:10.146Z,10.48
2023-03-31T19:46:37.983Z,10.47
2023-03-31T19:49:05.892Z,10.46
2023-03-31T19:51:36.809Z,10.46
2023-03-31T19:54:04.599Z,10.45
2023-03-31T19:56:34.552Z,10.43
2023-03-31T19:59:02.783Z,10.41
2023-03-31T20:01:30.786Z,10.39
2023-03-31T20:03:58.698Z,10.37
2023-03-31T20:06:29.450Z,10.35
2023-03-31T20:09:02.100Z,10.32
2023-03-31T20:11:32.327Z,10.31
2023-03-31T20:14:00.868Z,10.31
2023-03-31T20:16:31.589Z,10.32
2023-03-31T20:19:04.164Z,10.32
2023-03-31T20:21:34.406Z,10.32
2023-03-31T20:24:02.875Z,10.33
2023-03-31T20:26:32.531Z,10.34
2023-03-31T20:29:02.825Z,10.35
2023-03-31T20:31:36.506Z,10.35
2023-03-31T20:34:08.582Z,10.37
2023-03-31T20:36:36.230Z,10.37
2023-03-31T20:39:05.736Z,10.36
2023-03-31T20:41:37.310Z,10.37
2023-03-31T20:44:07.547Z,10.36
2023-03-31T20:46:36.074Z,10.37
2023-03-31T20:49:03.895Z,10.36
2023-03-31T20:51:34.844Z,10.37
2023-03-31T20:54:02.480Z,10.38
2023-03-31T20:56:41.733Z,10.37
2023-03-31T20:59:15.133Z,10.37
2023-03-31T21:01:45.245Z,10.37
2023-03-31T21:04:14.143Z,10.37
2023-03-31T21:06:44.726Z,10.38
2023-03-31T21:09:14.299Z,10.38
2023-03-31T21:11:42.504Z,10.39
2023-03-31T21:14:13.593Z,10.39
2023-03-31T21:16:41.409Z,10.39
2023-03-31T21:19:09.660Z,10.39
2023-03-31T21:21:40.185Z,10.39
2023-03-31T21:24:09.505Z,10.38
2023-03-31T21:26:37.249Z,10.38
2023-03-31T21:29:05.322Z,10.38
2023-03-31T21:31:33.273Z,10.36
2023-03-31T21:34:02.773Z,10.35
2023-03-31T21:36:30.964Z,10.33
2023-03-31T21:38:58.749Z,10.32
2023-03-31T21:41:30.018Z,10.31
2023-03-31T21:44:02.948Z,10.31
2023-03-31T21:46:33.117Z,10.29
2023-03-31T21:49:02.565Z,10.29
2023-03-31T21:51:30.415Z,10.28
2023-03-31T21:53:58.444Z,10.28
2023-03-31T21:56:28.390Z,10.29
2023-03-31T21:59:01.280Z,10.30
2023-03-31T22:01:29.043Z,10.31
2023-03-31T22:03:57.301Z,10.32
2023-03-31T22:06:25.012Z,10.33
2023-03-31T22:08:52.680Z,10.33
2023-03-31T22:11:20.433Z,10.34
2023-03-31T22:13:48.143Z,10.34
2023-03-31T22:16:19.462Z,10.33
2023-03-31T22:18:50.180Z,10.33
2023-03-31T22:21:24.672Z,10.33
2023-03-31T22:23:58.574Z,10.33
2023-03-31T22:26:28.662Z,10.33
2023-03-31T22:28:57.128Z,10.33
2023-03-31T22:31:26.435Z,10.33
2023-03-31T22:33:54.227Z,10.33
2023-03-31T22:36:21.978Z,10.31
2023-03-31T22:38:49.785Z,10.30
2023-03-31T22:41:17.668Z,10.30
2023-03-31T22:43:46.416Z,10.30
2023-03-31T22:46:15.035Z,10.29
2023-03-31T22:48:44.212Z,10.28
2023-03-31T22:51:12.305Z,10.26
2023-03-31T22:53:40.069Z,10.25
2023-03-31T22:56:11.941Z,10.25
2023-03-31T22:58:39.654Z,10.22
2023-03-31T23:01:09.837Z,10.22
2023-03-31T23:03:38.105Z,10.21
2023-03-31T23:06:06.631Z,10.20
2023-03-31T23:08:36.785Z,10.19
2023-03-31T23:11:07.606Z,10.17
2023-03-31T23:13:36.095Z,10.17
2023-03-31T23:16:09.773Z,10.17
2023-03-31T23:18:44.316Z,10.18
2023-03-31T23:21:13.458Z,10.18
2023-03-31T23:23:42.284Z,10.18
2023-03-31T23:26:14.795Z,10.18
2023-03-31T23:29:06.152Z,10.17
2023-03-31T23:31:34.491Z,10.16
2023-03-31T23:34:04.659Z,10.16
2023-03-31T23:36:32.361Z,10.15
2023-03-31T23:39:00.096Z,10.15
2023-03-31T23:41:27.785Z,10.14
2023-03-31T23:43:57.807Z,10.13
2023-03-31T23:46:26.075Z,10.11
2023-03-31T23:48:54.453Z,10.11
2023-03-31T23:51:22.131Z,10.11
2023-03-31T23:53:50.213Z,10.10
2023-03-31T23:56:18.208Z,10.08
2023-03-31T23:58:46.095Z,10.06
